Mercer County Airport
KBLF : now visible

Airfield :











YOU CAN JOIN US ON...

 
LOGIN :

Register | Disclaimer

   EN    FR    IT 

 









Legend :    VFR   Marginal VFR   IFR   Intensive IFR   Very Intensive IFR
Visi :
Ceiling :
>= 8 km
>= 3000ft
5 to 8 km
1000 to 3000 ft
1500m to 5 km
500 to 1000 ft
800 to 1500m
200 to 500 ft
< 800m
< 200 ft
Symbols :   Thunderstorms  Fog  Heavy snow  Heavy precipitations  Wind > 20 kt






- Airport Elevation : 2857 ft
- IATA code : BLF


KBLF - Mercer County

CURRENT METAR :
  • 011806Z AUTO 31007KT 10SM OVC012 03/01 A2990 RMK AO2 T00280006 TSNO

EXPIRED METARs :
  • 011752Z AUTO 30007KT 10SM OVC016 03/01 A2990 RMK AO2 SLP134 60000 T00330006 10033 20011 51008 TSNO
  • 011652Z AUTO 31006KT 10SM BKN017 OVC022 03/01 A2989 RMK AO2 SLP133 T00330006 TSNO
  • 011552Z AUTO 31004KT 10SM BKN016 OVC025 03/01 A2988 RMK AO2 SLP131 T00280006 TSNO

TAF KBLF
Valid from the 01 at 18:00 until the 02 at 18:00 UTC


011721Z 0118/0218 31008KT P6SM SCT015 OVC035
TEMPO 0118/0122 4SM -SHRASN OVC015
FM012300 31008KT P6SM VCSH OVC020
FM020000 31007KT P6SM OVC018
FM021000 31006KT P6SM BKN006
FM021200 31008G18KT P6SM BKN025



MET'MAP, your aeronautical weather chart ! - Copyright ORBIFLY December 2007 - Disclaimer

ORBIFLY MET'MAP TEAM :

Programming & Development : Alexandra Zaïnal
Concept & original design : Baudouin d'Aumeries
Assistance for programming : Marc-Olivier Méhu
Technical & hardware support : Manuel Goepfert

Contact : metmap@orbifly.com




SOURCES & CREDITS :

   NOAA       Earth
Advisory